Time;durP1;ratioP1;P1;durP2;ratioP2;P2;SDS_P1;SDS_P2;PMS_P1;PMS_P2;Temp;Humidity;BMP_temperature;BMP_pressure;BME280_temperature;BME280_humidity;BME280_pressure;Samples;Min_cycle;Max_cycle;Signal;HPM_P1;HPM_P2
2021/03/03 00:01:21;;;;;;;24.80;10.57;;;9.30;99.90;;;;;;4976598;28;20270;-88
2021/03/03 00:03:47;;;;;;;15.43;9.85;;;9.20;99.90;;;;;;4977689;28;20250;-89
2021/03/03 00:06:14;;;;;;;17.50;10.02;;;9.30;99.90;;;;;;4963731;28;20222;-88
2021/03/03 00:08:41;;;;;;;16.75;9.30;;;9.20;99.90;;;;;;4958131;29;20242;-88
2021/03/03 00:11:07;;;;;;;19.92;10.80;;;9.20;99.90;;;;;;4969649;28;20650;-89
2021/03/03 00:13:34;;;;;;;16.15;10.40;;;9.20;99.90;;;;;;4977043;28;20294;-88
2021/03/03 00:16:00;;;;;;;23.88;10.68;;;9.10;99.90;;;;;;4966734;28;20677;-88
2021/03/03 00:18:26;;;;;;;14.27;9.10;;;9.10;99.90;;;;;;4957809;29;20243;-88
2021/03/03 00:20:53;;;;;;;17.35;10.35;;;9.10;99.90;;;;;;4966248;28;20602;-87
2021/03/03 00:23:19;;;;;;;13.25;9.20;;;9.00;99.90;;;;;;4964176;28;20188;-88
2021/03/03 00:25:46;;;;;;;14.98;9.68;;;9.00;99.90;;;;;;4975319;28;20654;-88
2021/03/03 00:28:12;;;;;;;11.48;9.93;;;8.90;99.90;;;;;;4976216;28;20203;-88
2021/03/03 00:30:39;;;;;;;19.08;11.80;;;8.90;99.90;;;;;;4958469;28;20595;-88
2021/03/03 00:33:05;;;;;;;15.48;10.45;;;8.80;99.90;;;;;;4957144;29;20191;-88
2021/03/03 00:35:32;;;;;;;13.57;9.20;;;8.80;99.90;;;;;;4971880;28;20202;-88
2021/03/03 00:37:58;;;;;;;15.48;9.50;;;8.80;99.90;;;;;;4969431;28;20180;-88
2021/03/03 00:40:24;;;;;;;14.40;10.93;;;8.90;99.90;;;;;;4956678;29;20221;-88
2021/03/03 00:42:51;;;;;;;14.80;9.73;;;8.90;99.90;;;;;;4961231;28;20253;-88
2021/03/03 00:45:18;;;;;;;16.80;11.35;;;8.80;99.90;;;;;;4976057;28;20198;-88
2021/03/03 00:47:44;;;;;;;14.48;9.75;;;8.70;99.90;;;;;;4972673;28;20211;-88
2021/03/03 00:50:11;;;;;;;21.67;11.82;;;8.70;99.90;;;;;;4956627;29;20196;-88
2021/03/03 00:52:37;;;;;;;15.82;10.90;;;8.80;99.90;;;;;;4961786;28;20218;-88
2021/03/03 00:55:05;;;;;;;23.92;11.35;;;8.70;99.90;;;;;;4975670;28;20259;-88
2021/03/03 00:57:31;;;;;;;18.45;10.60;;;8.60;99.90;;;;;;4971159;28;20512;-89
2021/03/03 00:59:58;;;;;;;16.20;10.82;;;8.70;99.90;;;;;;4956364;29;20191;-88
2021/03/03 01:02:24;;;;;;;19.27;11.70;;;8.70;99.90;;;;;;4959624;28;20212;-88
2021/03/03 01:04:51;;;;;;;17.25;11.27;;;8.60;99.90;;;;;;4972881;28;20198;-88
2021/03/03 01:07:17;;;;;;;14.30;10.00;;;8.60;99.90;;;;;;4970276;28;20215;-88
2021/03/03 01:09:43;;;;;;;15.75;11.93;;;8.60;99.90;;;;;;4975188;28;20669;-88
2021/03/03 01:12:09;;;;;;;16.50;10.55;;;8.60;99.90;;;;;;4956486;28;20199;-88
2021/03/03 01:14:36;;;;;;;13.60;9.70;;;8.60;99.90;;;;;;4956486;29;20191;-88
2021/03/03 01:17:03;;;;;;;17.98;9.75;;;8.70;99.90;;;;;;4974585;28;20194;-88
2021/03/03 01:19:29;;;;;;;15.85;10.00;;;8.70;99.90;;;;;;4975561;28;20654;-88
2021/03/03 01:21:56;;;;;;;16.92;10.48;;;8.70;99.90;;;;;;4958421;28;20191;-87
2021/03/03 01:24:22;;;;;;;17.58;10.45;;;8.80;99.90;;;;;;4956254;29;20274;-87
2021/03/03 01:26:48;;;;;;;13.32;9.27;;;8.80;99.90;;;;;;4971368;28;20238;-88
2021/03/03 01:29:15;;;;;;;20.38;12.10;;;8.80;99.90;;;;;;4975762;28;20191;-87
2021/03/03 01:31:41;;;;;;;16.02;10.10;;;8.70;99.90;;;;;;4961864;28;20192;-88
2021/03/03 01:34:08;;;;;;;16.02;10.15;;;8.60;99.90;;;;;;4965960;28;20202;-88
2021/03/03 01:36:34;;;;;;;18.55;9.32;;;8.80;99.90;;;;;;4975538;28;20193;-88
2021/03/03 01:39:01;;;;;;;15.90;10.18;;;8.70;99.90;;;;;;4968995;28;20202;-88
2021/03/03 01:41:27;;;;;;;25.35;11.25;;;8.70;99.90;;;;;;4964843;28;20313;-88
2021/03/03 01:43:53;;;;;;;18.20;10.10;;;8.70;99.90;;;;;;4964597;28;20187;-88
2021/03/03 01:46:20;;;;;;;16.00;9.70;;;8.70;99.90;;;;;;4975321;28;20265;-88
2021/03/03 01:48:46;;;;;;;13.77;9.30;;;8.80;99.90;;;;;;4969328;28;20184;-87
2021/03/03 01:51:15;;;;;;;14.50;9.68;;;8.70;99.90;;;;;;4956028;29;20219;-87
2021/03/03 01:53:42;;;;;;;14.55;11.07;;;8.70;99.90;;;;;;4956048;28;20187;-88
2021/03/03 01:56:08;;;;;;;16.40;9.32;;;8.80;99.90;;;;;;4956168;29;20203;-88
2021/03/03 01:58:35;;;;;;;14.52;10.05;;;8.80;99.90;;;;;;4956008;28;20191;-88
2021/03/03 02:01:01;;;;;;;18.38;9.82;;;8.70;99.90;;;;;;4955536;29;20280;-88
2021/03/03 02:03:27;;;;;;;17.65;9.50;;;8.70;99.90;;;;;;4973188;28;20197;-88
2021/03/03 02:05:58;;;;;;;14.23;10.60;;;8.70;99.90;;;;;;4971290;28;20258;-87
2021/03/03 02:08:36;;;;;;;15.52;10.15;;;8.70;99.90;;;;;;4955513;28;20187;-88
2021/03/03 02:11:08;;;;;;;19.00;11.00;;;8.60;99.90;;;;;;4958854;28;20236;-88
2021/03/03 02:13:39;;;;;;;19.98;9.90;;;8.60;99.90;;;;;;4974503;28;20574;-89
2021/03/03 02:16:08;;;;;;;13.50;8.68;;;8.50;99.90;;;;;;4971081;28;20214;-87
2021/03/03 02:18:36;;;;;;;15.15;10.40;;;8.50;99.90;;;;;;4955381;29;20215;-88
2021/03/03 02:21:08;;;;;;;14.10;10.20;;;8.40;99.90;;;;;;4957562;28;20246;-88
2021/03/03 02:23:50;;;;;;;17.42;10.20;;;8.40;99.90;;;;;;4956848;28;20201;-88
2021/03/03 02:26:20;;;;;;;16.70;9.93;;;8.30;99.90;;;;;;4958610;28;20257;-88
2021/03/03 02:28:49;;;;;;;15.77;9.07;;;8.40;99.90;;;;;;4974735;28;20195;-88
2021/03/03 02:31:17;;;;;;;17.30;9.18;;;8.30;99.90;;;;;;4960779;28;20192;-88
2021/03/03 02:33:45;;;;;;;13.63;8.73;;;8.40;99.90;;;;;;4955266;29;20212;-88
2021/03/03 02:36:12;;;;;;;16.98;9.63;;;8.40;99.90;;;;;;4967140;28;20187;-88
2021/03/03 02:38:41;;;;;;;18.65;9.38;;;8.40;99.90;;;;;;4974057;28;20199;-88
2021/03/03 02:41:09;;;;;;;21.83;9.88;;;8.40;99.90;;;;;;4963284;28;20195;-88
2021/03/03 02:43:38;;;;;;;14.13;9.60;;;8.30;99.90;;;;;;4955050;29;20551;-88
2021/03/03 02:46:05;;;;;;;16.48;9.38;;;8.40;99.90;;;;;;4964446;28;20214;-89
2021/03/03 02:48:32;;;;;;;15.75;9.75;;;8.40;99.90;;;;;;4973899;28;20252;-88
2021/03/03 02:50:58;;;;;;;18.02;10.18;;;8.40;99.90;;;;;;4965510;28;20219;-88
2021/03/03 02:53:24;;;;;;;15.70;10.63;;;8.40;99.90;;;;;;4958660;28;20199;-88
2021/03/03 02:55:51;;;;;;;15.73;10.27;;;8.40;99.90;;;;;;4963978;28;20184;-88
2021/03/03 02:58:20;;;;;;;21.10;10.57;;;8.30;99.90;;;;;;4964533;28;20194;-88
2021/03/03 03:00:49;;;;;;;21.63;11.23;;;8.30;99.90;;;;;;4981048;28;20198;-88
2021/03/03 03:03:20;;;;;;;17.48;10.38;;;8.30;99.90;;;;;;4978803;28;20217;-88
2021/03/03 03:05:52;;;;;;;15.73;9.77;;;8.30;99.90;;;;;;4961727;28;20591;-89
2021/03/03 03:08:21;;;;;;;18.83;11.57;;;8.30;99.90;;;;;;4946677;28;20932;-89
2021/03/03 03:10:48;;;;;;;17.33;10.95;;;8.30;99.90;;;;;;4981239;28;20190;-88
2021/03/03 03:13:18;;;;;;;19.55;10.18;;;8.40;99.90;;;;;;4979568;28;20249;-88
2021/03/03 03:15:49;;;;;;;15.13;9.05;;;8.30;99.90;;;;;;4963142;28;20198;-88
2021/03/03 03:18:19;;;;;;;14.70;10.05;;;8.30;99.90;;;;;;4978271;28;20194;-88
2021/03/03 03:20:47;;;;;;;18.98;9.88;;;8.20;99.90;;;;;;4980944;28;20201;-88
2021/03/03 03:23:15;;;;;;;15.25;9.18;;;8.20;99.90;;;;;;4980185;28;20199;-88
2021/03/03 03:25:42;;;;;;;16.80;10.77;;;8.20;99.90;;;;;;4961593;29;20191;-88
2021/03/03 03:28:08;;;;;;;13.32;9.25;;;8.10;99.90;;;;;;4976307;28;20243;-88
2021/03/03 03:30:35;;;;;;;16.10;9.15;;;8.10;99.90;;;;;;4980857;28;20187;-89
2021/03/03 03:33:03;;;;;;;14.23;10.18;;;8.10;99.90;;;;;;4966750;28;20246;-88
2021/03/03 03:35:30;;;;;;;15.48;10.82;;;8.10;99.90;;;;;;4961537;29;20196;-88
2021/03/03 03:37:57;;;;;;;15.57;9.98;;;8.20;99.90;;;;;;4973140;28;20190;-88
2021/03/03 03:40:23;;;;;;;15.68;9.95;;;8.20;99.90;;;;;;4980750;28;20199;-88
2021/03/03 03:42:54;;;;;;;13.60;9.52;;;8.20;99.90;;;;;;4979508;28;20245;-88
2021/03/03 03:45:22;;;;;;;17.33;9.80;;;8.10;99.90;;;;;;4980278;28;20198;-88
2021/03/03 03:47:48;;;;;;;20.95;10.98;;;8.10;99.90;;;;;;4952956;28;20262;-88
2021/03/03 03:50:16;;;;;;;16.20;10.98;;;8.10;99.90;;;;;;4943851;29;20196;-88
2021/03/03 03:52:43;;;;;;;19.17;10.70;;;8.20;99.90;;;;;;4969428;28;20214;-88
2021/03/03 03:55:11;;;;;;;18.38;11.20;;;8.20;99.90;;;;;;4972743;28;20234;-89
2021/03/03 03:57:48;;;;;;;16.75;10.35;;;8.20;99.90;;;;;;4960488;28;20199;-88
2021/03/03 04:00:17;;;;;;;16.02;8.25;;;8.20;99.90;;;;;;4968180;28;20191;-88
2021/03/03 04:02:44;;;;;;;16.05;10.05;;;8.20;99.90;;;;;;4980575;28;20194;-88
2021/03/03 04:05:12;;;;;;;16.42;9.55;;;8.30;99.90;;;;;;4971140;28;20192;-88
2021/03/03 04:07:39;;;;;;;20.25;9.77;;;8.30;99.90;;;;;;4957924;29;20305;-88
2021/03/03 04:10:07;;;;;;;15.07;11.35;;;8.30;99.90;;;;;;4966578;28;20183;-88
2021/03/03 04:12:34;;;;;;;21.30;10.70;;;8.30;99.90;;;;;;4987929;28;20245;-89
2021/03/03 04:15:00;;;;;;;14.38;9.60;;;8.20;99.90;;;;;;4984883;28;20183;-88
2021/03/03 04:17:26;;;;;;;17.65;9.13;;;8.30;99.90;;;;;;4977875;28;20202;-88
2021/03/03 04:19:53;;;;;;;14.82;9.65;;;8.30;99.90;;;;;;4958296;28;21640;-88
2021/03/03 04:22:19;;;;;;;16.95;10.25;;;8.30;99.90;;;;;;4958420;29;20202;-88
2021/03/03 04:24:46;;;;;;;13.98;9.43;;;8.30;99.90;;;;;;4959446;28;20242;-88
2021/03/03 04:27:12;;;;;;;17.17;11.90;;;8.30;99.90;;;;;;4959395;29;20277;-87
2021/03/03 04:29:39;;;;;;;20.67;10.65;;;8.20;99.90;;;;;;4974059;28;20187;-88
2021/03/03 04:32:06;;;;;;;18.88;10.85;;;8.30;99.90;;;;;;4977524;28;20218;-88
2021/03/03 04:34:32;;;;;;;18.73;11.55;;;8.30;99.90;;;;;;4962406;28;20239;-88
2021/03/03 04:36:59;;;;;;;19.15;10.07;;;8.30;99.90;;;;;;4957751;29;20199;-89
2021/03/03 04:39:25;;;;;;;19.02;10.07;;;8.30;99.90;;;;;;4958217;28;20526;-89
2021/03/03 04:41:52;;;;;;;17.20;10.70;;;8.20;99.90;;;;;;4960397;28;20198;-89
2021/03/03 04:44:19;;;;;;;21.60;9.95;;;8.20;99.90;;;;;;4960020;28;20591;-89
2021/03/03 04:46:45;;;;;;;17.10;9.32;;;8.20;99.90;;;;;;4976447;28;20670;-89
2021/03/03 04:49:11;;;;;;;20.33;11.35;;;8.10;99.90;;;;;;4963723;28;20192;-88
2021/03/03 04:51:37;;;;;;;14.68;10.07;;;8.00;99.90;;;;;;4957829;28;20242;-89
2021/03/03 04:54:04;;;;;;;15.55;10.68;;;8.00;99.90;;;;;;4969302;28;20333;-88
2021/03/03 04:56:30;;;;;;;19.80;10.35;;;8.00;99.90;;;;;;4976797;28;20190;-88
2021/03/03 04:58:58;;;;;;;19.70;10.65;;;8.00;99.90;;;;;;4977596;28;20202;-89
2021/03/03 05:01:24;;;;;;;19.85;12.20;;;8.00;99.90;;;;;;4958319;28;20578;-88
2021/03/03 05:03:50;;;;;;;18.70;11.80;;;8.10;99.90;;;;;;4941510;29;20246;-89
2021/03/03 05:06:17;;;;;;;13.40;9.77;;;8.10;99.90;;;;;;4959133;29;20326;-89
2021/03/03 05:08:43;;;;;;;17.10;11.48;;;8.20;99.90;;;;;;4941995;29;20555;-89
2021/03/03 05:11:10;;;;;;;17.40;9.95;;;8.20;99.90;;;;;;4949644;29;20199;-89
2021/03/03 05:13:36;;;;;;;19.98;10.35;;;8.20;99.90;;;;;;4973098;28;20187;-89
2021/03/03 05:16:03;;;;;;;15.73;11.05;;;8.20;99.90;;;;;;4991179;28;20210;-89
2021/03/03 05:18:30;;;;;;;17.63;10.80;;;8.20;99.90;;;;;;4973590;28;20195;-89
2021/03/03 05:20:56;;;;;;;15.52;11.00;;;8.20;99.90;;;;;;4985173;28;20191;-89
2021/03/03 05:23:27;;;;;;;17.05;10.77;;;8.20;99.90;;;;;;4990775;28;20199;-89
2021/03/03 05:25:53;;;;;;;17.02;9.65;;;8.20;99.90;;;;;;4985518;28;20654;-88
2021/03/03 05:28:19;;;;;;;18.77;10.85;;;8.10;99.90;;;;;;4951982;29;20211;-88
2021/03/03 05:30:45;;;;;;;16.02;9.80;;;8.20;99.90;;;;;;4967612;28;20195;-88
2021/03/03 05:33:13;;;;;;;13.90;10.20;;;8.20;99.90;;;;;;4976235;28;20194;-88
2021/03/03 05:35:39;;;;;;;16.25;9.68;;;8.20;99.90;;;;;;4965891;28;20222;-89
2021/03/03 05:38:05;;;;;;;16.40;10.20;;;8.20;99.90;;;;;;4956602;29;20579;-88
2021/03/03 05:40:31;;;;;;;23.80;11.60;;;8.20;99.90;;;;;;4956560;28;20192;-89
2021/03/03 05:42:58;;;;;;;21.02;10.27;;;8.10;99.90;;;;;;4956391;29;20196;-89
2021/03/03 05:45:25;;;;;;;16.27;10.73;;;8.10;99.90;;;;;;4956063;28;20274;-88
2021/03/03 05:47:55;;;;;;;19.58;11.85;;;8.10;99.90;;;;;;4957798;28;20271;-88
2021/03/03 05:50:24;;;;;;;16.45;10.68;;;8.20;99.90;;;;;;4975352;28;20187;-89
2021/03/03 05:52:51;;;;;;;17.10;10.43;;;8.20;99.90;;;;;;4974146;28;20227;-89
2021/03/03 05:55:18;;;;;;;15.63;11.20;;;8.20;99.90;;;;;;4973556;28;20210;-89
2021/03/03 05:57:44;;;;;;;20.88;11.75;;;8.10;99.90;;;;;;4958103;28;20192;-92
2021/03/03 06:00:11;;;;;;;20.98;11.60;;;8.10;99.90;;;;;;4977781;28;20191;-94
2021/03/03 06:02:38;;;;;;;16.10;11.23;;;8.10;99.90;;;;;;4978234;28;20195;-93
2021/03/03 06:05:06;;;;;;;18.55;9.75;;;8.00;99.90;;;;;;4960419;28;20187;-92
2021/03/03 06:07:34;;;;;;;22.30;11.65;;;8.00;99.90;;;;;;4958832;29;20662;-94
2021/03/03 06:10:00;;;;;;;19.67;11.07;;;8.00;99.90;;;;;;4959979;28;20674;-93
2021/03/03 06:12:27;;;;;;;14.90;10.10;;;7.90;99.90;;;;;;4962158;29;20199;-93
2021/03/03 06:14:53;;;;;;;18.92;10.60;;;8.00;99.90;;;;;;4981209;28;20190;-92
2021/03/03 06:17:20;;;;;;;16.50;10.95;;;7.90;99.90;;;;;;4949784;29;20634;-92
2021/03/03 06:19:46;;;;;;;20.60;11.52;;;8.00;99.90;;;;;;4962956;28;20192;-92
2021/03/03 06:22:26;;;;;;;18.73;11.95;;;8.00;99.90;;;;;;4945057;29;20197;-94
2021/03/03 06:24:54;;;;;;;21.67;10.60;;;8.00;99.90;;;;;;4979702;28;20639;-94
2021/03/03 06:27:22;;;;;;;18.45;11.55;;;8.00;99.90;;;;;;4979498;28;20222;-93
2021/03/03 06:30:01;;;;;;;20.30;10.05;;;8.00;99.90;;;;;;4960186;29;20250;-93
2021/03/03 06:32:27;;;;;;;18.42;10.55;;;7.90;99.90;;;;;;4937057;29;20671;-93
2021/03/03 06:34:53;;;;;;;16.45;11.18;;;7.90;99.90;;;;;;4961130;28;20194;-93
2021/03/03 06:37:20;;;;;;;22.17;12.75;;;7.80;99.90;;;;;;4958799;29;20191;-94
2021/03/03 06:40:05;;;;;;;27.27;17.27;;;7.90;99.90;;;;;;4958745;28;20195;-93
2021/03/03 06:42:33;;;;;;;20.15;13.90;;;8.00;99.90;;;;;;4960313;29;20187;-93
2021/03/03 06:44:59;;;;;;;22.58;11.32;;;8.10;99.90;;;;;;4963064;29;20219;-93
2021/03/03 06:47:25;;;;;;;19.08;12.85;;;8.20;99.90;;;;;;4970572;28;20278;-93
2021/03/03 06:49:53;;;;;;;21.52;12.23;;;8.30;99.90;;;;;;4962268;29;20175;-94
2021/03/03 06:52:37;;;;;;;24.10;13.07;;;8.30;99.90;;;;;;4963545;28;20575;-94
2021/03/03 06:55:05;;;;;;;18.73;11.55;;;8.30;99.90;;;;;;4972637;28;20187;-93
2021/03/03 06:57:31;;;;;;;16.08;10.10;;;8.30;99.90;;;;;;4960617;29;20536;-94
2021/03/03 07:02:34;;;;;;;17.00;10.00;;;8.30;99.90;;;;;;5088856;23;20252;-93
2021/03/03 07:05:02;;;;;;;21.25;10.85;;;8.40;99.90;;;;;;5016244;28;20177;-93
2021/03/03 07:07:28;;;;;;;19.08;11.65;;;8.40;99.90;;;;;;5016140;28;20267;-94
2021/03/03 07:09:58;;;;;;;16.23;9.75;;;8.50;99.90;;;;;;5015671;28;20185;-94
2021/03/03 07:12:26;;;;;;;21.60;11.65;;;8.60;99.90;;;;;;5018646;28;20193;-94
2021/03/03 07:14:57;;;;;;;21.80;12.55;;;8.60;99.90;;;;;;5015331;28;20189;-93
2021/03/03 07:17:24;;;;;;;19.15;9.23;;;8.60;99.90;;;;;;5014705;28;20193;-92
2021/03/03 07:19:53;;;;;;;20.13;12.55;;;8.70;99.90;;;;;;5015475;28;20201;-94
2021/03/03 07:22:28;;;;;;;19.17;10.60;;;8.80;99.90;;;;;;5014695;28;20186;-92
2021/03/03 07:24:57;;;;;;;20.38;10.20;;;8.90;99.90;;;;;;5014828;28;20193;-92
2021/03/03 07:27:24;;;;;;;20.92;12.30;;;9.00;99.90;;;;;;5014445;28;20213;-92
2021/03/03 07:29:53;;;;;;;19.80;11.10;;;9.10;99.90;;;;;;5014931;28;20200;-92
2021/03/03 07:32:21;;;;;;;18.83;11.43;;;9.10;99.90;;;;;;5014458;28;20265;-92
2021/03/03 07:34:53;;;;;;;20.67;10.65;;;9.20;99.90;;;;;;5015077;28;20193;-92
2021/03/03 07:37:21;;;;;;;14.90;10.32;;;9.30;99.90;;;;;;5015219;28;20212;-91
2021/03/03 07:39:57;;;;;;;19.33;11.27;;;9.40;99.90;;;;;;5016309;28;20192;-93
2021/03/03 07:42:26;;;;;;;14.20;9.93;;;9.40;99.90;;;;;;5020723;28;20263;-92
2021/03/03 07:44:55;;;;;;;18.17;10.60;;;9.50;99.90;;;;;;5019313;28;20193;-92
2021/03/03 07:47:23;;;;;;;19.40;10.32;;;9.60;99.90;;;;;;5020865;28;20220;-93
2021/03/03 07:49:50;;;;;;;18.08;11.05;;;9.60;99.90;;;;;;5028467;28;20196;-93
2021/03/03 07:52:19;;;;;;;15.38;10.32;;;9.70;99.90;;;;;;5037119;28;20196;-93
2021/03/03 07:54:47;;;;;;;16.35;9.85;;;9.70;99.90;;;;;;5040384;28;20201;-94
2021/03/03 07:57:15;;;;;;;17.70;11.43;;;9.70;99.90;;;;;;5023296;28;20200;-93
2021/03/03 07:59:42;;;;;;;17.83;11.65;;;9.80;99.90;;;;;;5035693;28;20197;-94
2021/03/03 08:02:09;;;;;;;18.80;11.82;;;9.70;99.90;;;;;;5053456;28;20224;-94
2021/03/03 08:04:37;;;;;;;14.27;9.77;;;9.80;99.90;;;;;;5043776;28;20204;-94
2021/03/03 08:13:13;;;;;;;20.85;11.02;;;10.00;99.90;;;;;;5027179;28;20185;-93
2021/03/03 08:18:29;;;;;;;20.10;10.82;;;10.30;99.90;;;;;;5032483;28;20188;-93
2021/03/03 08:23:43;;;;;;;19.55;10.90;;;10.40;99.90;;;;;;5020634;28;20186;-90
2021/03/03 08:26:40;;;;;;;22.92;12.90;;;10.50;99.90;;;;;;5023455;28;20200;-93
2021/03/03 08:57:37;;;;;;;20.48;12.57;;;12.00;99.90;;;;;;5609524;23;20228;-94
2021/03/03 09:41:27;;;;;;;20.75;15.65;;;13.30;99.90;;;;;;5070556;28;20218;-95
2021/03/03 09:44:02;;;;;;;22.35;15.15;;;13.40;99.90;;;;;;5066962;28;20212;-93
2021/03/03 09:46:49;;;;;;;19.88;14.50;;;13.60;99.90;;;;;;5065169;28;20188;-92
2021/03/03 09:49:23;;;;;;;23.90;14.80;;;13.50;99.90;;;;;;5064474;28;20662;-94
2021/03/03 09:51:50;;;;;;;28.58;17.75;;;13.50;99.90;;;;;;5064074;28;20183;-94
2021/03/03 09:54:29;;;;;;;25.08;15.45;;;13.60;99.90;;;;;;5063477;28;20252;-92
2021/03/03 09:57:02;;;;;;;30.23;15.18;;;13.70;99.90;;;;;;5063389;28;20559;-92
2021/03/03 09:59:32;;;;;;;30.33;16.17;;;13.60;99.90;;;;;;5161840;23;20311;-95
2021/03/03 10:01:59;;;;;;;27.08;16.55;;;13.70;99.90;;;;;;5059458;28;20221;-93
2021/03/03 10:04:26;;;;;;;25.75;15.90;;;13.80;99.90;;;;;;5065148;28;20186;-93
2021/03/03 10:06:55;;;;;;;29.52;19.05;;;13.80;99.90;;;;;;5069779;28;20721;-93
2021/03/03 10:09:24;;;;;;;28.85;17.17;;;13.80;99.90;;;;;;5069518;28;20184;-93
2021/03/03 10:11:53;;;;;;;27.73;17.17;;;13.70;99.90;;;;;;5072319;28;20235;-93
2021/03/03 10:14:20;;;;;;;29.50;18.88;;;13.80;99.90;;;;;;5073260;28;20192;-94
2021/03/03 10:17:01;;;;;;;23.90;17.85;;;13.90;99.90;;;;;;5072393;28;20182;-94
2021/03/03 10:19:28;;;;;;;29.35;18.75;;;14.10;99.90;;;;;;5054648;28;20195;-93
2021/03/03 10:21:55;;;;;;;22.27;16.88;;;14.10;99.90;;;;;;5069136;28;20229;-92
2021/03/03 10:29:35;;;;;;;26.70;17.60;;;13.70;99.90;;;;;;5629912;23;20425;-91
2021/03/03 10:42:24;;;;;;;26.02;20.85;;;14.30;99.90;;;;;;5700999;23;20261;-93
2021/03/03 10:44:53;;;;;;;30.27;21.92;;;14.50;99.90;;;;;;5499053;23;20282;-94
2021/03/03 10:52:31;;;;;;;30.17;21.13;;;14.80;99.90;;;;;;5277068;23;20227;-94
2021/03/03 11:03:11;;;;;;;35.50;24.15;;;14.80;99.90;;;;;;5506832;23;20278;-94
2021/03/03 11:05:39;;;;;;;33.38;23.88;;;14.80;99.90;;;;;;5003630;23;20205;-93
2021/03/03 11:08:07;;;;;;;35.13;23.48;;;14.70;99.90;;;;;;4993576;23;20207;-94
2021/03/03 11:13:09;;;;;;;32.33;25.35;;;15.00;99.90;;;;;;5001606;23;20230;-94
2021/03/03 11:15:35;;;;;;;28.70;23.60;;;15.00;99.90;;;;;;5255425;23;20313;-94
2021/03/03 11:18:02;;;;;;;32.35;26.67;;;15.10;99.90;;;;;;5155531;22;20255;-94
2021/03/03 11:20:31;;;;;;;33.28;25.45;;;15.40;99.90;;;;;;5011435;28;20185;-94
2021/03/03 11:22:57;;;;;;;38.97;26.10;;;15.50;99.90;;;;;;5011533;28;20201;-95
2021/03/03 11:27:58;;;;;;;34.90;26.35;;;15.60;99.90;;;;;;5009712;28;20225;-95
2021/03/03 11:30:25;;;;;;;38.97;27.63;;;15.80;99.90;;;;;;5012648;28;20190;-93
2021/03/03 11:33:01;;;;;;;40.67;27.30;;;15.80;99.90;;;;;;5010392;28;20253;-94
2021/03/03 11:35:28;;;;;;;39.33;26.75;;;15.80;99.90;;;;;;5011562;28;20204;-95
2021/03/03 11:37:56;;;;;;;38.45;27.15;;;15.90;99.90;;;;;;4992195;28;20183;-94
2021/03/03 11:40:22;;;;;;;39.25;27.35;;;15.90;99.90;;;;;;5012203;28;20195;-95
2021/03/03 11:42:49;;;;;;;41.13;28.67;;;16.00;99.90;;;;;;4994963;28;20188;-95
2021/03/03 11:45:16;;;;;;;32.45;26.70;;;16.10;99.90;;;;;;5012097;28;20208;-94
2021/03/03 11:47:43;;;;;;;33.13;24.92;;;16.20;99.90;;;;;;5008899;28;20214;-92
2021/03/03 11:50:11;;;;;;;37.63;27.25;;;16.40;99.90;;;;;;5005982;28;20194;-93
2021/03/03 11:52:38;;;;;;;35.75;27.38;;;16.60;99.90;;;;;;4998575;28;20199;-93
2021/03/03 11:55:07;;;;;;;30.13;24.85;;;16.80;99.90;;;;;;4997840;28;20198;-94
2021/03/03 11:57:37;;;;;;;31.65;25.90;;;17.30;99.90;;;;;;5008875;28;20178;-95
2021/03/03 12:00:07;;;;;;;35.10;27.02;;;17.50;99.90;;;;;;5002181;28;20333;-93
2021/03/03 12:02:34;;;;;;;32.33;26.40;;;17.80;99.90;;;;;;4984361;28;20193;-93
2021/03/03 12:05:06;;;;;;;40.60;26.90;;;18.00;99.90;;;;;;5006953;28;20645;-94
2021/03/03 12:07:32;;;;;;;34.15;27.55;;;18.40;99.90;;;;;;5003479;28;20345;-93
2021/03/03 12:09:58;;;;;;;39.60;27.30;;;18.60;99.90;;;;;;5003431;28;20195;-92
2021/03/03 12:12:28;;;;;;;39.38;26.15;;;18.50;99.90;;;;;;4993865;28;20186;-93
2021/03/03 12:14:55;;;;;;;37.92;26.90;;;18.70;99.90;;;;;;5005480;28;20615;-94
2021/03/03 12:17:26;;;;;;;28.35;24.98;;;18.70;99.90;;;;;;5003872;28;20236;-94
2021/03/03 12:19:53;;;;;;;34.58;27.38;;;18.80;99.90;;;;;;4999884;28;20252;-94
2021/03/03 12:22:20;;;;;;;41.80;27.88;;;18.70;99.90;;;;;;5001809;28;20187;-93
2021/03/03 12:24:47;;;;;;;42.45;31.65;;;18.70;99.90;;;;;;5000957;28;20281;-95
2021/03/03 12:27:13;;;;;;;38.00;27.10;;;18.70;99.90;;;;;;4984753;28;20252;-94
2021/03/03 12:29:41;;;;;;;33.15;26.00;;;18.60;99.90;;;;;;5004535;28;20194;-93
2021/03/03 12:32:07;;;;;;;30.00;24.20;;;18.60;99.90;;;;;;5006279;28;20213;-92
2021/03/03 12:34:34;;;;;;;28.13;23.67;;;18.50;99.90;;;;;;5003328;28;20182;-94
2021/03/03 15:09:12;;;;;;;33.50;26.55;;;20.20;99.90;;;;;;6038133;23;20634;31
2021/03/03 15:11:40;;;;;;;32.70;25.95;;;20.20;99.90;;;;;;4956839;23;20218;-94
2021/03/03 15:14:06;;;;;;;36.42;26.70;;;20.00;99.90;;;;;;4981458;28;20557;-93
2021/03/03 15:16:32;;;;;;;34.28;26.85;;;19.80;99.90;;;;;;4994846;28;20198;-93
2021/03/03 15:18:59;;;;;;;39.25;27.33;;;19.70;99.90;;;;;;4995111;28;20194;-93
2021/03/03 15:21:26;;;;;;;38.25;28.60;;;19.50;99.90;;;;;;4996028;28;20190;-94
2021/03/03 15:23:52;;;;;;;35.63;26.02;;;19.60;99.90;;;;;;4987170;28;20515;-91
2021/03/03 15:26:19;;;;;;;40.25;27.05;;;20.00;99.90;;;;;;4995223;28;20190;-94
2021/03/03 15:28:46;;;;;;;34.10;26.30;;;20.30;99.90;;;;;;4982917;28;20215;-94
2021/03/03 15:31:13;;;;;;;36.47;27.42;;;20.50;99.90;;;;;;4979811;28;20197;-96
2021/03/03 15:33:41;;;;;;;34.97;26.50;;;20.80;99.90;;;;;;4962323;28;20205;-95
2021/03/03 15:36:09;;;;;;;49.05;29.23;;;20.70;99.90;;;;;;4986271;28;20194;-94
2021/03/03 15:38:35;;;;;;;35.53;27.80;;;20.50;99.90;;;;;;4997347;28;20285;-95
2021/03/03 15:41:02;;;;;;;38.67;28.38;;;20.30;99.90;;;;;;4997477;28;20194;-95
2021/03/03 15:43:29;;;;;;;40.17;28.65;;;20.10;99.90;;;;;;4997444;28;20723;-94
2021/03/03 15:45:57;;;;;;;36.80;27.55;;;19.90;99.90;;;;;;4995898;28;20187;-94
2021/03/03 15:48:24;;;;;;;35.25;26.80;;;19.60;99.90;;;;;;4997326;28;20213;-95
2021/03/03 15:50:50;;;;;;;44.33;26.15;;;19.50;99.90;;;;;;4998238;28;20200;-95
2021/03/03 15:53:17;;;;;;;38.65;26.45;;;19.40;99.90;;;;;;5000413;28;20241;-95
2021/03/03 15:55:44;;;;;;;29.20;24.00;;;19.40;99.90;;;;;;4981364;28;20187;-94
2021/03/03 15:58:10;;;;;;;39.38;27.35;;;19.10;99.90;;;;;;4998766;28;20696;-95
2021/03/03 16:00:36;;;;;;;30.83;24.98;;;18.90;99.90;;;;;;4999166;28;20281;-94
2021/03/03 16:03:05;;;;;;;41.90;25.77;;;18.80;99.90;;;;;;5002123;28;20182;-96
2021/03/03 16:05:32;;;;;;;34.40;25.60;;;18.50;99.90;;;;;;5001572;28;20193;-94
2021/03/03 16:07:58;;;;;;;30.98;22.75;;;18.10;99.90;;;;;;5002003;28;20257;-94
2021/03/03 16:10:27;;;;;;;33.17;23.98;;;17.60;99.90;;;;;;5007590;28;20194;-95
2021/03/03 16:12:55;;;;;;;37.20;26.10;;;17.30;99.90;;;;;;5013251;28;20285;-96
2021/03/03 16:15:22;;;;;;;31.75;23.42;;;17.20;99.90;;;;;;5004700;28;20187;-94
2021/03/03 16:17:49;;;;;;;33.97;24.83;;;17.00;99.90;;;;;;4992582;28;20194;-93
2021/03/03 16:22:56;;;;;;;45.40;26.55;;;16.50;99.90;;;;;;5129130;22;20246;-96
2021/03/03 16:25:31;;;;;;;32.83;23.95;;;16.30;99.90;;;;;;5060561;23;20218;-96
2021/03/03 16:27:58;;;;;;;32.00;23.33;;;16.20;99.90;;;;;;4966690;28;20207;-94
2021/03/03 16:30:34;;;;;;;42.45;25.50;;;16.10;99.90;;;;;;4981696;28;20275;-94
2021/03/03 16:33:01;;;;;;;40.65;28.42;;;15.80;99.90;;;;;;4964475;28;20187;-95
2021/03/03 16:35:30;;;;;;;42.45;24.63;;;15.70;99.90;;;;;;4976643;28;20223;-94
2021/03/03 16:37:59;;;;;;;30.30;23.30;;;15.50;99.90;;;;;;4973636;28;20170;-96
2021/03/03 16:43:07;;;;;;;36.15;25.50;;;15.20;99.90;;;;;;4964835;29;20183;-96
2021/03/03 16:45:33;;;;;;;40.35;24.95;;;15.10;99.90;;;;;;4965416;29;20339;-96
2021/03/03 16:48:02;;;;;;;38.45;23.75;;;15.10;99.90;;;;;;4966439;29;20222;-96
2021/03/03 16:50:29;;;;;;;35.88;25.42;;;14.90;99.90;;;;;;4979331;28;20190;-96
2021/03/03 16:52:56;;;;;;;37.80;25.20;;;14.80;99.90;;;;;;4949852;29;20221;-96
2021/03/03 17:13:37;;;;;;;37.35;26.55;;;14.10;99.90;;;;;;5337398;23;20216;-96
2021/03/03 17:16:05;;;;;;;37.67;23.95;;;14.00;99.90;;;;;;4979455;28;20274;-94
2021/03/03 17:18:34;;;;;;;40.40;24.60;;;13.90;99.90;;;;;;4991409;28;20246;-96
2021/03/03 17:21:01;;;;;;;33.45;23.40;;;13.80;99.90;;;;;;4971978;28;20266;-96
2021/03/03 17:23:30;;;;;;;35.67;25.67;;;13.70;99.90;;;;;;4991863;28;20181;-96
2021/03/03 17:25:57;;;;;;;36.58;24.52;;;13.60;99.90;;;;;;4995545;28;20186;-95
2021/03/03 17:28:27;;;;;;;38.25;27.15;;;13.50;99.90;;;;;;4998473;28;20206;-95
2021/03/03 17:30:59;;;;;;;38.75;25.45;;;13.40;99.90;;;;;;5573165;23;20221;-96
2021/03/03 17:41:07;;;;;;;39.13;25.85;;;12.90;99.90;;;;;;5736933;22;20210;-96